createdAt,value
2022-10-11T00:02:26.742Z,92656.06
2022-10-11T00:04:59.696Z,92657.13
2022-10-11T00:07:32.065Z,92668.56
2022-10-11T00:10:05.968Z,92658.88
2022-10-11T00:12:38.767Z,92661.97
2022-10-11T00:15:13.743Z,92656.72
2022-10-11T00:17:56.109Z,92657.50
2022-10-11T00:20:38.538Z,92655.34
2022-10-11T00:23:27.515Z,92661.38
2022-10-11T00:26:10.451Z,92659.34
2022-10-11T00:28:52.471Z,92659.06
2022-10-11T00:31:35.984Z,92648.88
2022-10-11T00:34:18.378Z,92653.03
2022-10-11T00:37:07.523Z,92650.72
2022-10-11T00:39:49.642Z,92656.25
2022-10-11T00:42:38.431Z,92653.34
2022-10-11T00:46:08.420Z,92642.19
2022-10-11T00:48:56.582Z,92646.78
2022-10-11T00:51:50.718Z,92643.84
2022-10-11T00:54:41.799Z,92648.59
2022-10-11T00:57:36.237Z,92641.56
2022-10-11T01:00:19.523Z,92648.94
2022-10-11T01:03:02.783Z,92642.47
2022-10-11T01:05:44.473Z,92645.94
2022-10-11T01:08:33.919Z,92637.63
2022-10-11T01:11:20.548Z,92642.06
2022-10-11T01:14:42.608Z,92637.91
2022-10-11T01:17:34.960Z,92638.34
2022-10-11T01:20:44.830Z,92638.44
2022-10-11T01:23:59.554Z,92632.31
2022-10-11T01:27:24.767Z,92633.28
2022-10-11T01:30:19.855Z,92626.88
2022-10-11T01:33:18.491Z,92634.56
2022-10-11T01:36:10.798Z,92622.53
2022-10-11T01:38:57.698Z,92631.06
2022-10-11T01:41:50.842Z,92626.19
2022-10-11T01:44:36.472Z,92625.41
2022-10-11T01:47:20.084Z,92619.91
2022-10-11T01:50:03.216Z,92618.66
2022-10-11T01:52:51.743Z,92612.72
2022-10-11T01:55:40.512Z,92620.84
2022-10-11T01:58:36.342Z,92617.94
2022-10-11T02:01:26.785Z,92618.25
2022-10-11T02:04:25.765Z,92615.63
2022-10-11T02:07:21.758Z,92620.53
2022-10-11T02:10:15.241Z,92609.97
2022-10-11T02:13:02.656Z,92612.78
2022-10-11T02:15:47.288Z,92609.97
2022-10-11T02:18:54.236Z,92606.69
2022-10-11T02:21:41.297Z,92605.81
2022-10-11T02:24:34.295Z,92606.78
2022-10-11T02:27:21.082Z,92604.84
2022-10-11T02:30:09.752Z,92603.78
2022-10-11T02:33:02.500Z,92610.06
2022-10-11T02:35:57.376Z,92603.28
2022-10-11T02:38:44.900Z,92598.16
2022-10-11T02:41:34.419Z,92602.50
2022-10-11T02:44:23.052Z,92597.28
2022-10-11T02:47:13.645Z,92595.16
2022-10-11T02:50:02.697Z,92587.31
2022-10-11T02:52:44.849Z,92585.41
2022-10-11T02:55:34.215Z,92571.94
2022-10-11T02:58:17.444Z,92581.25
2022-10-11T03:01:06.385Z,92581.13
2022-10-11T03:03:48.140Z,92587.03
2022-10-11T03:06:37.208Z,92578.72
2022-10-11T03:09:25.028Z,92577.06
2022-10-11T03:12:07.159Z,92568.94
2022-10-11T03:14:55.815Z,92572.53
2022-10-11T03:17:37.775Z,92573.59
2022-10-11T03:20:20.674Z,92582.97
2022-10-11T03:23:10.058Z,92565.94
2022-10-11T03:25:59.112Z,92576.03
2022-10-11T03:28:46.947Z,92578.13
2022-10-11T03:31:28.719Z,92581.53
2022-10-11T03:34:17.746Z,92574.75
2022-10-11T03:36:59.600Z,92575.88
2022-10-11T03:39:48.613Z,92578.09
2022-10-11T03:42:30.396Z,92570.47
2022-10-11T03:45:19.519Z,92563.00
2022-10-11T03:48:01.682Z,92564.75
2022-10-11T03:50:44.239Z,92563.69
2022-10-11T03:53:27.297Z,92565.91
2022-10-11T03:56:16.647Z,92566.78
2022-10-11T03:59:05.687Z,92555.75
2022-10-11T04:01:47.548Z,92564.56
2022-10-11T04:04:30.540Z,92561.06
2022-10-11T04:07:19.570Z,92568.72
2022-10-11T04:10:01.415Z,92574.34
2022-10-11T04:12:44.385Z,92565.94
2022-10-11T04:15:27.411Z,92571.84
2022-10-11T04:18:16.492Z,92562.66
2022-10-11T04:20:58.218Z,92567.88
2022-10-11T04:23:47.318Z,92564.97
2022-10-11T04:26:29.131Z,92570.41
2022-10-11T04:29:18.119Z,92575.81
2022-10-11T04:31:59.995Z,92578.75
2022-10-11T04:34:48.933Z,92576.88
2022-10-11T04:37:30.774Z,92585.88
2022-10-11T04:40:13.815Z,92588.78
2022-10-11T04:43:02.761Z,92576.97
2022-10-11T04:45:44.643Z,92571.28
2022-10-11T04:48:33.865Z,92580.75
2022-10-11T04:51:15.457Z,92581.72
2022-10-11T04:54:04.543Z,92588.78
2022-10-11T04:56:46.298Z,92588.28
2022-10-11T04:59:29.320Z,92583.34
2022-10-11T05:02:18.439Z,92593.53
2022-10-11T05:05:00.150Z,92590.13
2022-10-11T05:07:43.151Z,92582.00
2022-10-11T05:10:32.183Z,92592.44
2022-10-11T05:13:13.968Z,92598.47
2022-10-11T05:16:07.164Z,92603.97
2022-10-11T05:18:52.800Z,92612.28
2022-10-11T05:21:35.870Z,92617.03
2022-10-11T05:24:18.875Z,92618.66
2022-10-11T05:27:03.588Z,92621.47
2022-10-11T05:29:46.576Z,92620.91
2022-10-11T05:32:35.510Z,92621.47
2022-10-11T05:35:17.537Z,92612.59
2022-10-11T05:38:00.363Z,92593.88
2022-10-11T05:40:49.535Z,92596.19
2022-10-11T05:43:31.691Z,92595.22
2022-10-11T05:46:14.323Z,92589.94
2022-10-11T05:49:03.241Z,92588.50
2022-10-11T05:51:45.099Z,92592.28
2022-10-11T05:54:30.017Z,92597.78
2022-10-11T05:57:18.703Z,92598.28
2022-10-11T06:00:00.476Z,92586.47
2022-10-11T06:02:49.867Z,92579.13
2022-10-11T06:05:38.968Z,92578.81
2022-10-11T06:08:20.884Z,92573.59
2022-10-11T06:11:14.548Z,92578.94
2022-10-11T06:14:02.371Z,92574.19
2022-10-11T06:16:50.219Z,92581.34
2022-10-11T06:19:32.042Z,92588.22
2022-10-11T06:22:21.099Z,92585.78
2022-10-11T06:25:02.957Z,92608.63
2022-10-11T06:27:51.879Z,92615.81
2022-10-11T06:30:33.710Z,92621.25
2022-10-11T06:33:23.643Z,92621.72
2022-10-11T06:36:09.632Z,92618.25
2022-10-11T06:38:53.225Z,92611.66
2022-10-11T06:41:41.455Z,92622.31
2022-10-11T06:44:30.916Z,92618.56
2022-10-11T06:47:12.591Z,92620.59
2022-10-11T06:50:01.621Z,92626.19
2022-10-11T06:52:43.435Z,92613.03
2022-10-11T06:55:26.475Z,92615.66
2022-10-11T06:58:09.533Z,92619.22
2022-10-11T07:01:01.425Z,92623.75
2022-10-11T07:03:44.699Z,92610.69
2022-10-11T07:06:28.109Z,92608.16
2022-10-11T07:09:17.114Z,92599.28
2022-10-11T07:11:58.908Z,92605.66
2022-10-11T07:14:47.972Z,92615.81
2022-10-11T07:17:29.824Z,92624.94
2022-10-11T07:20:18.911Z,92629.09
2022-10-11T07:23:00.603Z,92628.91
2022-10-11T07:25:53.886Z,92620.72
2022-10-11T07:28:37.012Z,92624.72
2022-10-11T07:31:21.463Z,92627.44
2022-10-11T07:34:10.424Z,92620.63
2022-10-11T07:36:59.318Z,92622.69
2022-10-11T07:39:41.111Z,92624.16
2022-10-11T07:42:30.130Z,92627.91
2022-10-11T07:45:11.970Z,92634.69
2022-10-11T07:48:00.971Z,92625.06
2022-10-11T07:50:42.826Z,92631.53
2022-10-11T07:53:31.835Z,92630.25
2022-10-11T07:56:15.342Z,92625.69
2022-10-11T07:59:04.385Z,92631.75
2022-10-11T08:01:46.278Z,92632.88
2022-10-11T08:04:35.107Z,92635.00
2022-10-11T08:07:16.978Z,92632.75
2022-10-11T08:10:07.792Z,92637.69
2022-10-11T08:12:49.546Z,92634.44
2022-10-11T08:15:32.663Z,92642.53
2022-10-11T08:18:21.706Z,92646.69
2022-10-11T08:21:13.399Z,92647.19
2022-10-11T08:23:55.922Z,92626.00
2022-10-11T08:26:39.249Z,92644.41
2022-10-11T08:29:27.896Z,92643.72
2022-10-11T08:32:11.440Z,92643.28
2022-10-11T08:35:00.310Z,92637.06
2022-10-11T08:37:42.107Z,92642.72
2022-10-11T08:40:35.178Z,92637.78
2022-10-11T08:43:29.443Z,92637.47
2022-10-11T08:46:14.723Z,92635.59
2022-10-11T08:48:56.881Z,92637.59
2022-10-11T08:51:50.318Z,92641.19
2022-10-11T08:54:44.144Z,92636.41
2022-10-11T08:57:29.310Z,92639.97
2022-10-11T09:00:16.808Z,92641.69
2022-10-11T09:03:09.583Z,92642.88
2022-10-11T09:06:06.526Z,92642.13
2022-10-11T09:09:08.074Z,92635.66
2022-10-11T09:12:08.507Z,92634.13
2022-10-11T09:15:08.130Z,92634.69
2022-10-11T09:18:09.086Z,92626.47
2022-10-11T09:21:09.011Z,92634.09
2022-10-11T09:24:24.233Z,92627.31
2022-10-11T09:27:05.172Z,92631.66
2022-10-11T09:29:51.431Z,92623.47
2022-10-11T09:32:30.233Z,92628.31
2022-10-11T09:35:12.043Z,92625.38
2022-10-11T09:37:53.785Z,92617.19
2022-10-11T09:40:38.278Z,92618.88
2022-10-11T09:43:11.266Z,92625.66
2022-10-11T09:45:49.463Z,92623.59
2022-10-11T09:48:25.879Z,92619.84
2022-10-11T09:51:04.632Z,92622.91
2022-10-11T09:53:50.875Z,92619.34
2022-10-11T09:56:26.043Z,92621.66
2022-10-11T09:59:26.054Z,92622.69
2022-10-11T10:02:20.268Z,92617.75
2022-10-11T10:05:02.303Z,92616.25
2022-10-11T10:07:37.035Z,92622.88
2022-10-11T10:10:28.196Z,92616.16
2022-10-11T10:13:04.430Z,92613.84
2022-10-11T10:15:37.697Z,92611.88
2022-10-11T10:18:19.984Z,92605.09
2022-10-11T10:20:53.858Z,92604.13
2022-10-11T10:23:29.673Z,92599.00
2022-10-11T10:26:14.563Z,92607.31
2022-10-11T10:28:58.912Z,92606.69
2022-10-11T10:31:54.911Z,92593.88
2022-10-11T10:34:33.310Z,92591.56
2022-10-11T10:37:16.715Z,92592.53
2022-10-11T10:39:54.247Z,92587.63
2022-10-11T10:42:27.530Z,92579.97
2022-10-11T10:45:00.969Z,92585.50
2022-10-11T10:47:50.390Z,92587.69
2022-10-11T10:50:26.922Z,92579.16
2022-10-11T10:53:13.475Z,92582.06
2022-10-11T10:55:50.013Z,92584.88
2022-10-11T10:58:39.722Z,92581.16
2022-10-11T11:01:18.887Z,92575.69
2022-10-11T11:03:57.821Z,92571.06
2022-10-11T11:06:37.395Z,92567.19
2022-10-11T11:09:16.935Z,92576.56
2022-10-11T11:11:58.595Z,92570.81
2022-10-11T11:14:46.738Z,92560.88
2022-10-11T11:17:28.747Z,92571.78
2022-10-11T11:20:15.672Z,92569.66
2022-10-11T11:22:55.198Z,92564.00
2022-10-11T11:25:30.722Z,92556.59
2022-10-11T11:28:18.072Z,92551.28
2022-10-11T11:30:58.798Z,92556.28
2022-10-11T11:33:47.787Z,92556.63
2022-10-11T11:36:27.455Z,92554.50
2022-10-11T11:39:02.781Z,92555.00
2022-10-11T11:41:40.650Z,92557.75
2022-10-11T11:44:17.413Z,92551.75
2022-10-11T11:46:55.026Z,92547.41
2022-10-11T11:49:33.872Z,92545.44
2022-10-11T11:52:12.527Z,92545.88
2022-10-11T11:54:50.851Z,92545.06
2022-10-11T11:57:33.433Z,92547.09
2022-10-11T12:00:13.255Z,92545.38
2022-10-11T12:02:52.026Z,92541.34
2022-10-11T12:05:29.062Z,92544.53
2022-10-11T12:08:05.298Z,92542.50
2022-10-11T12:10:53.119Z,92536.38
2022-10-11T12:13:32.257Z,92535.34
2022-10-11T12:16:09.534Z,92526.81
2022-10-11T12:18:59.164Z,92537.41
2022-10-11T12:21:34.241Z,92528.41
2022-10-11T12:24:11.320Z,92529.47
2022-10-11T12:26:45.077Z,92528.03
2022-10-11T12:29:43.536Z,92531.00
2022-10-11T12:32:50.998Z,92518.97
2022-10-11T12:35:54.899Z,92526.53
2022-10-11T12:38:30.578Z,92519.97
2022-10-11T12:41:38.418Z,92520.25
2022-10-11T12:44:21.495Z,92520.50
2022-10-11T12:47:25.135Z,92521.72
2022-10-11T12:50:14.839Z,92516.84
2022-10-11T12:52:54.717Z,92515.84
2022-10-11T12:55:46.671Z,92514.56
2022-10-11T12:58:27.362Z,92516.88
2022-10-11T13:01:16.854Z,92509.16
2022-10-11T13:03:57.241Z,92507.66
2022-10-11T13:06:34.098Z,92506.72
2022-10-11T13:09:17.354Z,92517.63
2022-10-11T13:11:53.743Z,92510.97
2022-10-11T13:14:29.009Z,92513.44
2022-10-11T13:17:15.294Z,92507.59
2022-10-11T13:19:58.230Z,92507.13
2022-10-11T13:22:34.907Z,92504.50
2022-10-11T13:25:08.759Z,92504.88
2022-10-11T13:27:42.098Z,92500.91
2022-10-11T13:30:18.233Z,92504.00
2022-10-11T13:32:51.768Z,92498.16
2022-10-11T13:35:30.354Z,92504.50
2022-10-11T13:38:04.300Z,92500.50
2022-10-11T13:40:37.994Z,92501.00
2022-10-11T13:43:12.826Z,92507.78
2022-10-11T13:45:45.406Z,92513.19
2022-10-11T13:48:17.911Z,92508.88
2022-10-11T13:51:06.303Z,92519.38
2022-10-11T13:53:56.387Z,92511.34
2022-10-11T13:56:31.688Z,92508.88
2022-10-11T13:59:05.007Z,92510.56
2022-10-11T14:01:39.865Z,92511.50
2022-10-11T14:04:14.792Z,92509.78
2022-10-11T14:06:52.015Z,92509.03
2022-10-11T14:09:29.075Z,92507.16
2022-10-11T14:12:37.790Z,92507.34
2022-10-11T14:15:24.842Z,92505.00
2022-10-11T14:17:57.856Z,92486.78
2022-10-11T14:20:38.471Z,92497.88
2022-10-11T14:23:12.607Z,92498.38
2022-10-11T14:25:45.651Z,92500.50
2022-10-11T14:28:18.065Z,92495.25
2022-10-11T14:30:51.126Z,92502.81
2022-10-11T14:33:23.598Z,92500.06
2022-10-11T14:35:58.275Z,92496.06
2022-10-11T14:38:30.567Z,92495.91
2022-10-11T14:41:03.158Z,92496.34
2022-10-11T14:43:35.501Z,92492.94
2022-10-11T14:46:17.635Z,92499.06
2022-10-11T14:48:55.564Z,92500.19
2022-10-11T14:51:33.648Z,92506.97
2022-10-11T14:54:06.085Z,92511.59
2022-10-11T14:56:38.727Z,92508.97
2022-10-11T14:59:13.962Z,92511.91
2022-10-11T15:01:50.982Z,92514.06
2022-10-11T15:04:25.455Z,92514.38
2022-10-11T15:06:58.123Z,92504.94
2022-10-11T15:09:33.695Z,92511.91
2022-10-11T15:12:06.173Z,92510.06
2022-10-11T15:14:38.525Z,92511.31
2022-10-11T15:17:12.218Z,92508.84
2022-10-11T15:19:44.566Z,92513.94
2022-10-11T15:22:16.879Z,92514.38
2022-10-11T15:24:51.673Z,92509.91
2022-10-11T15:27:27.921Z,92510.38
2022-10-11T15:30:00.517Z,92506.22
2022-10-11T15:32:33.497Z,92514.25
2022-10-11T15:35:06.479Z,92514.09
2022-10-11T15:37:39.578Z,92516.72
2022-10-11T15:40:17.707Z,92518.25
2022-10-11T15:42:51.227Z,92526.75
2022-10-11T15:45:23.910Z,92517.63
2022-10-11T15:47:57.051Z,92520.72
2022-10-11T15:50:36.588Z,92517.59
2022-10-11T15:53:11.444Z,92527.91
2022-10-11T15:55:45.632Z,92529.03
2022-10-11T15:58:20.903Z,92521.31
2022-10-11T16:00:55.687Z,92529.66
2022-10-11T16:03:29.694Z,92534.59
2022-10-11T16:06:05.198Z,92538.28
2022-10-11T16:08:38.862Z,92537.19
2022-10-11T16:11:12.057Z,92536.59
2022-10-11T16:13:44.809Z,92539.38
2022-10-11T16:16:17.279Z,92544.00
2022-10-11T16:18:50.378Z,92544.16
2022-10-11T16:21:23.486Z,92542.94
2022-10-11T16:23:55.832Z,92540.75
2022-10-11T16:26:28.341Z,92542.88
2022-10-11T16:29:00.760Z,92545.78
2022-10-11T16:31:33.242Z,92547.50
2022-10-11T16:34:06.250Z,92547.97
2022-10-11T16:36:40.083Z,92550.13
2022-10-11T16:39:14.378Z,92554.38
2022-10-11T16:41:47.235Z,92539.81
2022-10-11T16:44:23.358Z,92554.22
2022-10-11T16:46:55.943Z,92554.41
2022-10-11T16:49:28.934Z,92557.50
2022-10-11T16:52:03.154Z,92557.50
2022-10-11T16:54:35.490Z,92557.03
2022-10-11T16:57:08.420Z,92555.94
2022-10-11T16:59:41.129Z,92555.94
2022-10-11T17:02:16.108Z,92566.44
2022-10-11T17:04:50.746Z,92570.31
2022-10-11T17:07:23.179Z,92570.13
2022-10-11T17:09:55.604Z,92567.03
2022-10-11T17:12:28.167Z,92567.97
2022-10-11T17:15:00.471Z,92573.38
2022-10-11T17:17:32.764Z,92565.81
2022-10-11T17:20:06.846Z,92567.19
2022-10-11T17:22:39.358Z,92571.38
2022-10-11T17:25:11.761Z,92573.81
2022-10-11T17:27:44.038Z,92576.25
2022-10-11T17:30:16.810Z,92571.03
2022-10-11T17:32:50.383Z,92573.31
2022-10-11T17:35:23.361Z,92573.13
2022-10-11T17:37:55.667Z,92575.56
2022-10-11T17:40:28.030Z,92580.50
2022-10-11T17:43:00.375Z,92577.09
2022-10-11T17:45:32.730Z,92577.69
2022-10-11T17:48:05.290Z,92575.41
2022-10-11T17:50:41.547Z,92578.03
2022-10-11T17:53:13.940Z,92579.84
2022-10-11T17:55:48.120Z,92575.53
2022-10-11T17:58:20.486Z,92573.38
2022-10-11T18:00:54.121Z,92568.75
2022-10-11T18:03:26.975Z,92572.25
2022-10-11T18:06:02.284Z,92573.81
2022-10-11T18:08:39.966Z,92573.19
2022-10-11T18:11:19.958Z,92572.56
2022-10-11T18:13:52.937Z,92575.06
2022-10-11T18:16:29.651Z,92579.06
2022-10-11T18:19:04.138Z,92578.25
2022-10-11T18:21:37.283Z,92572.72
2022-10-11T18:24:12.574Z,92577.47
2022-10-11T18:26:45.911Z,92583.03
2022-10-11T18:29:18.231Z,92580.72
2022-10-11T18:31:50.571Z,92576.84
2022-10-11T18:34:22.907Z,92585.00
2022-10-11T18:36:56.052Z,92578.81
2022-10-11T18:39:28.410Z,92582.81
2022-10-11T18:42:03.804Z,92584.94
2022-10-11T18:44:36.120Z,92581.06
2022-10-11T18:47:08.436Z,92583.22
2022-10-11T18:49:40.721Z,92578.28
2022-10-11T18:52:13.689Z,92578.44
2022-10-11T18:54:45.979Z,92576.44
2022-10-11T18:57:18.552Z,92574.13
2022-10-11T18:59:50.901Z,92567.91
2022-10-11T19:02:23.203Z,92581.03
2022-10-11T19:04:55.512Z,92578.84
2022-10-11T19:07:28.605Z,92579.69
2022-10-11T19:10:02.051Z,92579.41
2022-10-11T19:12:34.386Z,92582.22
2022-10-11T19:17:49.950Z,92582.03
2022-10-11T19:20:22.416Z,92579.41
2022-10-11T19:22:55.398Z,92581.44
2022-10-11T19:25:28.048Z,92591.25
2022-10-11T19:28:00.390Z,92588.47
2022-10-11T19:30:32.724Z,92586.03
2022-10-11T19:33:05.015Z,92589.88
2022-10-11T19:35:37.341Z,92592.09
2022-10-11T19:38:10.425Z,92590.34
2022-10-11T19:40:42.803Z,92589.88
2022-10-11T19:43:15.484Z,92591.13
2022-10-11T19:45:48.172Z,92592.97
2022-10-11T19:48:20.497Z,92596.03
2022-10-11T19:50:52.880Z,92596.31
2022-10-11T19:53:26.167Z,92597.84
2022-10-11T19:56:00.401Z,92605.53
2022-10-11T19:58:32.824Z,92607.97
2022-10-11T20:01:07.506Z,92601.19
2022-10-11T20:03:39.864Z,92608.25
2022-10-11T20:06:12.495Z,92606.63
2022-10-11T20:08:46.375Z,92603.63
2022-10-11T20:11:20.031Z,92597.44
2022-10-11T20:13:53.216Z,92601.47
2022-10-11T20:16:27.596Z,92601.47
2022-10-11T20:19:01.311Z,92604.38
2022-10-11T20:21:33.632Z,92607.00
2022-10-11T20:24:07.822Z,92600.13
2022-10-11T20:26:40.259Z,92599.94
2022-10-11T20:29:12.602Z,92593.28
2022-10-11T20:31:45.008Z,92596.66
2022-10-11T20:34:17.345Z,92601.53
2022-10-11T20:36:49.678Z,92602.41
2022-10-11T20:39:22.995Z,92600.88
2022-10-11T20:41:55.329Z,92598.53
2022-10-11T20:44:27.647Z,92602.88
2022-10-11T20:47:03.894Z,92605.50
2022-10-11T20:49:36.583Z,92607.72
2022-10-11T20:52:08.832Z,92612.00
2022-10-11T20:54:41.791Z,92605.09
2022-10-11T20:57:14.103Z,92614.03
2022-10-11T20:59:47.591Z,92611.59
2022-10-11T21:02:19.920Z,92611.31
2022-10-11T21:04:52.239Z,92606.53
2022-10-11T21:07:24.583Z,92615.47
2022-10-11T21:09:57.534Z,92613.13
2022-10-11T21:12:29.838Z,92607.72
2022-10-11T21:15:02.109Z,92606.00
2022-10-11T21:17:34.914Z,92605.31
2022-10-11T21:20:08.104Z,92609.66
2022-10-11T21:22:40.414Z,92601.06
2022-10-11T21:25:20.927Z,92602.88
2022-10-11T21:27:53.251Z,92600.25
2022-10-11T21:30:25.639Z,92596.03
2022-10-11T21:32:57.955Z,92598.66
2022-10-11T21:35:30.748Z,92583.66
2022-10-11T21:38:03.083Z,92589.53
2022-10-11T21:40:39.046Z,92589.06
2022-10-11T21:43:11.342Z,92593.53
2022-10-11T21:45:43.671Z,92598.19
2022-10-11T21:48:16.011Z,92596.03
2022-10-11T21:50:52.133Z,92599.63
2022-10-11T21:53:24.467Z,92597.38
2022-10-11T21:55:57.955Z,92594.00
2022-10-11T21:58:30.286Z,92589.53
2022-10-11T22:01:02.579Z,92590.00
2022-10-11T22:03:34.905Z,92587.09
2022-10-11T22:06:07.343Z,92588.19
2022-10-11T22:08:39.850Z,92581.75
2022-10-11T22:11:13.088Z,92591.16
2022-10-11T22:13:45.445Z,92582.84
2022-10-11T22:16:17.728Z,92582.66
2022-10-11T22:18:52.432Z,92584.19
2022-10-11T22:21:24.740Z,92581.59
2022-10-11T22:23:57.089Z,92592.22
2022-10-11T22:26:30.904Z,92582.75
2022-10-11T22:29:03.504Z,92583.84
2022-10-11T22:31:35.839Z,92586.28
2022-10-11T22:34:08.170Z,92593.53
2022-10-11T22:36:40.486Z,92598.19
2022-10-11T22:39:13.067Z,92594.19
2022-10-11T22:41:46.032Z,92600.38
2022-10-11T22:44:18.316Z,92594.38
2022-10-11T22:46:50.635Z,92600.97
2022-10-11T22:49:22.929Z,92600.88
2022-10-11T22:51:55.231Z,92602.88
2022-10-11T22:54:27.597Z,92600.38
2022-10-11T22:57:00.567Z,92610.84
2022-10-11T22:59:32.895Z,92607.47
2022-10-11T23:02:05.238Z,92606.22
2022-10-11T23:04:37.575Z,92597.47
2022-10-11T23:07:09.919Z,92602.81
2022-10-11T23:09:42.237Z,92607.28
2022-10-11T23:12:15.262Z,92602.06
2022-10-11T23:14:47.530Z,92604.16
2022-10-11T23:17:19.862Z,92605.84
2022-10-11T23:19:52.367Z,92602.81
2022-10-11T23:22:25.114Z,92595.16
2022-10-11T23:24:57.470Z,92600.28
2022-10-11T23:27:30.507Z,92602.44
2022-10-11T23:30:03.497Z,92602.34
2022-10-11T23:32:36.582Z,92608.03
2022-10-11T23:35:18.484Z,92606.31
2022-10-11T23:37:52.735Z,92601.56
2022-10-11T23:40:25.103Z,92601.84
2022-10-11T23:42:58.027Z,92600.00
2022-10-11T23:45:30.371Z,92602.06
2022-10-11T23:48:02.923Z,92598.66
2022-10-11T23:50:35.217Z,92596.75
2022-10-11T23:53:07.490Z,92599.16
2022-10-11T23:55:39.967Z,92595.78
2022-10-11T23:58:12.904Z,92596.41
